createdAt,value
2018-08-28T00:01:28.876Z,9.83
2018-08-28T00:03:57.479Z,7.20
2018-08-28T00:06:25.967Z,8.77
2018-08-28T00:08:54.112Z,6.17
2018-08-28T00:11:22.232Z,7.57
2018-08-28T00:13:50.372Z,6.93
2018-08-28T00:16:18.765Z,11.37
2018-08-28T00:18:47.900Z,9.90
2018-08-28T00:21:16.684Z,11.60
2018-08-28T00:23:44.840Z,11.73
2018-08-28T00:26:12.971Z,11.93
2018-08-28T00:28:41.572Z,7.93
2018-08-28T00:31:09.708Z,8.40
2018-08-28T00:33:38.009Z,9.10
2018-08-28T00:36:06.156Z,12.80
2018-08-28T00:38:34.284Z,7.10
2018-08-28T00:41:03.125Z,8.20
2018-08-28T00:43:31.248Z,7.70
2018-08-28T00:45:59.924Z,8.73
2018-08-28T00:48:28.696Z,9.80
2018-08-28T00:50:57.390Z,12.23
2018-08-28T00:53:25.516Z,10.47
2018-08-28T00:55:53.636Z,9.33
2018-08-28T00:58:21.741Z,6.53
2018-08-28T01:00:50.705Z,9.80
2018-08-28T01:03:18.837Z,9.43
2018-08-28T01:05:46.976Z,10.67
2018-08-28T01:08:15.113Z,7.93
2018-08-28T01:10:44.268Z,10.80
2018-08-28T01:13:13.278Z,7.53
2018-08-28T01:15:41.928Z,11.97
2018-08-28T01:18:10.046Z,13.47
2018-08-28T01:20:39.348Z,8.53
2018-08-28T01:23:07.500Z,10.03
2018-08-28T01:25:35.603Z,9.70
2018-08-28T01:28:04.585Z,9.50
2018-08-28T01:30:33.220Z,10.67
2018-08-28T01:33:02.800Z,8.40
2018-08-28T01:35:30.985Z,6.73
2018-08-28T01:38:00.143Z,8.83
2018-08-28T01:43:24.584Z,7.00
2018-08-28T01:45:54.120Z,9.30
2018-08-28T01:48:23.724Z,10.23
2018-08-28T01:50:51.865Z,7.90
2018-08-28T01:53:20.013Z,9.67
2018-08-28T01:55:48.176Z,14.20
2018-08-28T01:58:16.802Z,15.13
2018-08-28T02:00:45.088Z,9.20
2018-08-28T02:03:13.364Z,8.83
2018-08-28T02:05:41.512Z,10.37
2018-08-28T02:08:09.653Z,11.40
2018-08-28T02:10:37.784Z,10.17
2018-08-28T02:13:06.006Z,8.10
2018-08-28T02:15:34.107Z,14.03
2018-08-28T02:18:02.570Z,12.00
2018-08-28T02:20:30.725Z,10.70
2018-08-28T02:22:58.844Z,10.97
2018-08-28T02:25:26.989Z,8.43
2018-08-28T02:27:55.108Z,8.40
2018-08-28T02:30:23.857Z,11.80
2018-08-28T02:32:51.985Z,10.63
2018-08-28T02:35:20.105Z,10.43
2018-08-28T02:37:48.273Z,7.03
2018-08-28T02:40:16.402Z,6.97
2018-08-28T02:42:44.564Z,9.33
2018-08-28T02:45:12.716Z,11.67
2018-08-28T02:47:40.832Z,7.97
2018-08-28T02:50:09.310Z,7.60
2018-08-28T02:52:37.429Z,6.50
2018-08-28T02:55:05.572Z,8.73
2018-08-28T02:57:33.692Z,9.10
2018-08-28T03:00:01.821Z,11.23
2018-08-28T03:02:29.948Z,12.60
2018-08-28T03:04:58.074Z,8.10
2018-08-28T03:07:26.201Z,8.70
2018-08-28T03:09:54.321Z,9.37
2018-08-28T03:12:22.471Z,11.50
2018-08-28T03:14:50.624Z,9.30
2018-08-28T03:17:18.786Z,9.30
2018-08-28T03:19:46.935Z,7.40
2018-08-28T03:22:15.397Z,9.47
2018-08-28T03:24:44.188Z,12.77
2018-08-28T03:27:12.969Z,7.13
2018-08-28T03:29:41.082Z,7.80
2018-08-28T03:32:09.220Z,6.80
2018-08-28T03:34:37.342Z,10.00
2018-08-28T03:37:05.646Z,12.23
2018-08-28T03:39:33.764Z,9.33
2018-08-28T03:42:01.901Z,10.80
2018-08-28T03:44:30.042Z,12.43
2018-08-28T03:46:58.555Z,8.10
2018-08-28T03:49:26.666Z,6.43
2018-08-28T03:51:54.800Z,7.27
2018-08-28T03:54:22.960Z,8.67
2018-08-28T03:56:51.097Z,9.40
2018-08-28T03:59:19.521Z,10.57
2018-08-28T04:01:47.650Z,8.77
2018-08-28T04:04:16.389Z,7.53
2018-08-28T04:06:44.508Z,9.37
2018-08-28T04:09:12.652Z,11.70
2018-08-28T04:11:40.785Z,13.83
2018-08-28T04:14:09.297Z,11.00
2018-08-28T04:16:37.600Z,16.00
2018-08-28T04:19:05.999Z,15.70
2018-08-28T04:21:35.033Z,14.53
2018-08-28T04:24:03.643Z,10.40
2018-08-28T04:26:32.680Z,12.87
2018-08-28T04:29:01.048Z,10.87
2018-08-28T04:31:29.816Z,10.63
2018-08-28T04:33:57.968Z,12.00
2018-08-28T04:36:26.812Z,9.50
2018-08-28T04:38:54.932Z,9.67
2018-08-28T04:41:23.701Z,9.20
2018-08-28T04:43:51.837Z,13.33
2018-08-28T04:46:19.974Z,14.23
2018-08-28T04:48:48.158Z,9.40
2018-08-28T04:51:17.160Z,10.23
2018-08-28T04:53:45.817Z,16.80
2018-08-28T04:56:13.983Z,12.83
2018-08-28T04:58:42.120Z,15.93
2018-08-28T05:01:10.244Z,10.10
2018-08-28T05:03:38.401Z,11.27
2018-08-28T05:06:07.126Z,10.53
2018-08-28T05:08:35.660Z,13.93
2018-08-28T05:11:03.809Z,11.10
2018-08-28T05:13:31.966Z,12.10
2018-08-28T05:16:00.267Z,11.23
2018-08-28T05:18:28.585Z,8.30
2018-08-28T05:20:56.701Z,9.67
2018-08-28T05:23:24.856Z,8.63
2018-08-28T05:25:53.011Z,11.77
2018-08-28T05:28:21.148Z,10.90
2018-08-28T05:30:49.280Z,7.07
2018-08-28T05:33:17.420Z,7.87
2018-08-28T05:35:46.536Z,11.90
2018-08-28T05:38:14.682Z,10.20
2018-08-28T05:40:43.060Z,7.73
2018-08-28T05:43:11.204Z,9.00
2018-08-28T05:45:39.341Z,10.60
2018-08-28T05:48:07.789Z,9.87
2018-08-28T05:50:35.937Z,7.70
2018-08-28T05:53:04.082Z,9.37
2018-08-28T05:55:32.201Z,9.60
2018-08-28T05:58:00.325Z,10.13
2018-08-28T06:00:28.461Z,6.97
2018-08-28T06:02:56.601Z,7.57
2018-08-28T06:05:24.716Z,8.73
2018-08-28T06:07:52.856Z,8.40
2018-08-28T06:10:20.980Z,7.60
2018-08-28T06:12:49.109Z,5.10
2018-08-28T06:15:17.241Z,7.57
2018-08-28T06:17:45.378Z,5.87
2018-08-28T06:20:13.500Z,11.00
2018-08-28T06:22:41.625Z,9.87
2018-08-28T06:25:09.756Z,8.17
2018-08-28T06:27:37.869Z,6.00
2018-08-28T06:30:06.004Z,7.37
2018-08-28T06:32:34.113Z,5.87
2018-08-28T06:35:02.254Z,8.57
2018-08-28T06:37:30.402Z,7.33
2018-08-28T06:39:58.516Z,10.50
2018-08-28T06:42:27.749Z,6.37
2018-08-28T06:44:55.891Z,6.63
2018-08-28T06:47:24.008Z,8.90
2018-08-28T06:49:52.361Z,7.93
2018-08-28T06:52:20.485Z,6.83
2018-08-28T06:54:48.628Z,9.03
2018-08-28T06:57:17.369Z,9.60
2018-08-28T06:59:45.504Z,6.90
2018-08-28T07:02:13.651Z,6.77
2018-08-28T07:04:41.765Z,8.37
2018-08-28T07:07:09.898Z,8.37
2018-08-28T07:09:38.009Z,9.73
2018-08-28T07:12:06.515Z,10.37
2018-08-28T07:14:34.616Z,11.73
2018-08-28T07:17:02.748Z,8.77
2018-08-28T07:19:30.877Z,12.70
2018-08-28T07:21:58.995Z,12.43
2018-08-28T07:24:28.260Z,11.80
2018-08-28T07:26:56.388Z,14.80
2018-08-28T07:29:24.537Z,11.10
2018-08-28T07:31:52.771Z,11.50
2018-08-28T07:34:20.831Z,10.23
2018-08-28T07:36:48.953Z,11.37
2018-08-28T07:39:17.101Z,14.80
2018-08-28T07:41:45.908Z,12.23
2018-08-28T07:44:14.058Z,16.00
2018-08-28T07:46:42.985Z,15.50
2018-08-28T07:49:11.101Z,14.93
2018-08-28T07:51:39.225Z,15.10
2018-08-28T07:54:07.356Z,11.37
2018-08-28T07:56:35.728Z,11.73
2018-08-28T07:59:03.848Z,17.03
2018-08-28T08:01:32.080Z,9.57
2018-08-28T08:04:00.183Z,14.70
2018-08-28T08:06:28.313Z,10.80
2018-08-28T08:08:57.118Z,11.40
2018-08-28T08:11:25.255Z,11.60
2018-08-28T08:13:53.484Z,14.10
2018-08-28T08:16:21.599Z,13.53
2018-08-28T08:18:49.734Z,10.87
2018-08-28T08:21:17.852Z,13.50
2018-08-28T08:23:45.993Z,11.03
2018-08-28T08:26:14.114Z,8.60
2018-08-28T08:28:42.237Z,8.03
2018-08-28T08:31:10.361Z,10.17
2018-08-28T08:33:39.056Z,12.50
2018-08-28T08:36:07.183Z,8.47
2018-08-28T08:38:35.307Z,9.80
2018-08-28T08:41:03.842Z,14.07
2018-08-28T08:43:31.956Z,9.17
2018-08-28T08:46:00.089Z,13.20
2018-08-28T08:48:28.214Z,9.33
2018-08-28T08:50:56.332Z,9.23
2018-08-28T08:53:24.580Z,9.80
2018-08-28T08:55:52.859Z,11.80
2018-08-28T08:58:20.993Z,10.10
2018-08-28T09:00:49.115Z,8.20
2018-08-28T09:03:17.231Z,9.00
2018-08-28T09:05:45.370Z,9.33
2018-08-28T09:08:13.525Z,8.40
2018-08-28T09:10:41.728Z,8.63
2018-08-28T09:13:09.877Z,9.53
2018-08-28T09:15:38.021Z,7.63
2018-08-28T09:18:06.377Z,8.60
2018-08-28T09:20:35.188Z,9.37
2018-08-28T09:23:06.148Z,13.40
2018-08-28T09:25:34.256Z,8.30
2018-08-28T09:28:02.397Z,7.57
2018-08-28T09:30:30.541Z,11.13
2018-08-28T09:32:58.667Z,8.63
2018-08-28T09:35:26.800Z,10.40
2018-08-28T09:37:54.945Z,10.10
2018-08-28T09:40:23.069Z,7.30
2018-08-28T09:42:51.201Z,11.07
2018-08-28T09:45:19.337Z,10.63
2018-08-28T09:47:47.447Z,8.50
2018-08-28T09:50:15.628Z,8.80
2018-08-28T09:52:43.684Z,9.07
2018-08-28T09:55:11.822Z,8.67
2018-08-28T09:57:39.971Z,9.20
2018-08-28T10:00:13.020Z,7.13
2018-08-28T10:02:41.185Z,7.50
2018-08-28T10:05:09.329Z,8.90
2018-08-28T10:07:37.448Z,7.43
2018-08-28T10:10:05.577Z,9.40
2018-08-28T10:12:33.713Z,8.23
2018-08-28T10:15:02.645Z,9.10
2018-08-28T10:17:30.898Z,9.10
2018-08-28T10:19:59.339Z,6.60
2018-08-28T10:22:27.545Z,11.17
2018-08-28T10:24:55.725Z,6.23
2018-08-28T10:27:24.228Z,10.80
2018-08-28T10:29:52.452Z,6.80
2018-08-28T10:32:20.577Z,7.83
2018-08-28T10:34:48.729Z,5.73
2018-08-28T10:37:17.166Z,7.23
2018-08-28T10:39:45.340Z,5.70
2018-08-28T10:42:13.526Z,3.80
2018-08-28T10:44:41.676Z,5.83
2018-08-28T10:47:09.869Z,8.80
2018-08-28T10:49:38.575Z,5.73
2018-08-28T10:52:07.240Z,7.27
2018-08-28T10:54:35.421Z,9.63
2018-08-28T10:57:03.604Z,5.97
2018-08-28T10:59:32.030Z,6.10
2018-08-28T11:02:00.188Z,5.80
2018-08-28T11:04:28.414Z,7.30
2018-08-28T11:06:56.556Z,9.50
2018-08-28T11:09:24.734Z,5.73
2018-08-28T11:11:53.316Z,4.40
2018-08-28T11:14:21.548Z,7.70
2018-08-28T11:16:49.755Z,5.40
2018-08-28T11:19:17.952Z,6.43
2018-08-28T11:21:46.121Z,5.43
2018-08-28T11:24:14.334Z,8.53
2018-08-28T11:26:43.173Z,4.67
2018-08-28T11:29:11.692Z,6.20
2018-08-28T11:31:39.868Z,6.33
2018-08-28T11:34:08.313Z,5.50
2018-08-28T11:36:37.049Z,4.70
2018-08-28T11:39:06.413Z,7.70
2018-08-28T11:41:34.868Z,8.60
2018-08-28T11:44:03.625Z,4.33
2018-08-28T11:46:31.802Z,6.53
2018-08-28T11:48:59.961Z,5.23
2018-08-28T11:51:28.303Z,7.10
2018-08-28T11:53:56.504Z,5.47
2018-08-28T11:56:24.712Z,5.60
2018-08-28T11:58:52.856Z,5.43
2018-08-28T12:01:22.959Z,6.27
2018-08-28T12:03:51.170Z,6.93
2018-08-28T12:06:19.429Z,9.83
2018-08-28T12:08:47.612Z,5.90
2018-08-28T12:11:15.829Z,8.67
2018-08-28T12:13:43.986Z,4.60
2018-08-28T12:16:12.142Z,11.33
2018-08-28T12:18:40.612Z,6.20
2018-08-28T12:21:08.829Z,5.90
2018-08-28T12:23:36.913Z,5.90
2018-08-28T12:26:05.269Z,6.57
2018-08-28T12:28:33.448Z,6.23
2018-08-28T12:31:01.746Z,6.83
2018-08-28T12:33:29.972Z,6.00
2018-08-28T12:35:58.157Z,7.60
2018-08-28T12:38:26.796Z,5.90
2018-08-28T12:40:54.984Z,5.67
2018-08-28T12:43:23.164Z,6.30
2018-08-28T12:45:51.320Z,6.90
2018-08-28T12:48:19.480Z,5.60
2018-08-28T12:50:48.152Z,7.07
2018-08-28T12:53:17.405Z,7.10
2018-08-28T12:55:45.580Z,7.40
2018-08-28T12:58:13.763Z,7.53
2018-08-28T13:00:42.016Z,4.77
2018-08-28T13:03:10.061Z,6.53
2018-08-28T13:05:38.324Z,6.53
2018-08-28T13:08:06.620Z,6.70
2018-08-28T13:10:35.868Z,4.10
2018-08-28T13:13:04.052Z,4.30
2018-08-28T13:15:32.221Z,4.20
2018-08-28T13:18:00.368Z,6.40
2018-08-28T13:20:28.556Z,6.50
2018-08-28T13:22:57.380Z,10.10
2018-08-28T13:25:25.544Z,6.77
2018-08-28T13:27:53.666Z,4.83
2018-08-28T13:30:21.810Z,6.10
2018-08-28T13:32:49.932Z,5.07
2018-08-28T13:35:18.091Z,4.97
2018-08-28T13:37:46.229Z,5.63
2018-08-28T13:40:14.381Z,5.67
2018-08-28T13:42:42.542Z,5.50
2018-08-28T13:45:10.724Z,6.80
2018-08-28T13:47:38.929Z,5.13
2018-08-28T13:50:07.073Z,6.10
2018-08-28T13:52:35.244Z,5.40
2018-08-28T13:55:03.427Z,8.90
2018-08-28T13:57:31.569Z,4.90
2018-08-28T14:00:01.014Z,5.20
2018-08-28T14:02:29.053Z,6.13
2018-08-28T14:04:57.239Z,3.87
2018-08-28T14:07:25.384Z,6.00
2018-08-28T14:09:53.508Z,4.57
2018-08-28T14:12:21.668Z,5.47
2018-08-28T14:14:50.192Z,4.07
2018-08-28T14:17:18.249Z,5.67
2018-08-28T14:19:46.388Z,5.07
2018-08-28T14:22:15.273Z,4.43
2018-08-28T14:24:44.608Z,8.20
2018-08-28T14:27:12.749Z,6.33
2018-08-28T14:29:40.940Z,5.20
2018-08-28T14:32:09.377Z,6.83
2018-08-28T14:34:37.552Z,3.40
2018-08-28T14:37:05.753Z,6.07
2018-08-28T14:39:33.884Z,5.00
2018-08-28T14:42:02.081Z,7.60
2018-08-28T14:44:30.228Z,4.10
2018-08-28T14:46:58.448Z,5.20
2018-08-28T14:49:26.596Z,4.93
2018-08-28T14:51:55.025Z,5.30
2018-08-28T14:54:23.161Z,4.33
2018-08-28T14:56:51.400Z,5.23
2018-08-28T14:59:19.474Z,4.97
2018-08-28T15:01:47.970Z,6.53
2018-08-28T15:04:16.137Z,4.43
2018-08-28T15:06:44.303Z,5.27
2018-08-28T15:09:12.471Z,4.13
2018-08-28T15:11:40.629Z,8.00
2018-08-28T15:14:08.840Z,5.40
2018-08-28T15:16:37.018Z,6.40
2018-08-28T15:19:05.839Z,4.87
2018-08-28T15:21:33.993Z,5.10
2018-08-28T15:24:02.389Z,6.43
2018-08-28T15:26:30.539Z,7.00
2018-08-28T15:28:58.717Z,6.00
2018-08-28T15:31:27.928Z,4.43
2018-08-28T15:33:56.088Z,5.10
2018-08-28T15:36:24.234Z,6.17
2018-08-28T15:38:52.352Z,6.03
2018-08-28T15:41:20.585Z,6.13
2018-08-28T15:43:48.739Z,5.70
2018-08-28T15:46:16.880Z,6.00
2018-08-28T15:48:45.060Z,6.07
2018-08-28T15:51:13.606Z,4.00
2018-08-28T15:53:41.668Z,6.70
2018-08-28T15:56:09.852Z,7.27
2018-08-28T15:58:38.965Z,6.60
2018-08-28T16:01:07.128Z,5.07
2018-08-28T16:03:35.893Z,5.07
2018-08-28T16:06:04.117Z,5.30
2018-08-28T16:08:32.379Z,8.97
2018-08-28T16:11:00.569Z,6.07
2018-08-28T16:13:28.937Z,4.30
2018-08-28T16:15:57.113Z,10.13
2018-08-28T16:18:25.263Z,8.50
2018-08-28T16:20:53.413Z,4.23
2018-08-28T16:23:26.944Z,5.17
2018-08-28T16:25:55.642Z,4.80
2018-08-28T16:28:23.859Z,7.87
2018-08-28T16:30:52.005Z,5.07
2018-08-28T16:33:20.185Z,4.87
2018-08-28T16:35:48.474Z,6.60
2018-08-28T16:38:16.528Z,6.57
2018-08-28T16:40:44.673Z,4.60
2018-08-28T16:43:12.852Z,6.03
2018-08-28T16:45:41.415Z,6.90
2018-08-28T16:48:10.328Z,5.80
2018-08-28T16:50:38.500Z,5.13
2018-08-28T16:53:07.657Z,3.83
2018-08-28T16:55:35.821Z,5.00
2018-08-28T16:58:04.296Z,6.03
2018-08-28T17:00:33.308Z,7.17
2018-08-28T17:03:01.773Z,4.13
2018-08-28T17:05:30.512Z,7.20
2018-08-28T17:07:58.668Z,4.53
2018-08-28T17:10:27.069Z,5.60
2018-08-28T17:12:55.217Z,5.27
2018-08-28T17:15:23.357Z,10.13
2018-08-28T17:17:51.496Z,6.17
2018-08-28T17:20:19.652Z,5.37
2018-08-28T17:22:47.826Z,5.13
2018-08-28T17:25:16.080Z,7.10
2018-08-28T17:27:44.256Z,4.33
2018-08-28T17:30:12.401Z,4.73
2018-08-28T17:32:40.541Z,6.13
2018-08-28T17:35:09.024Z,4.67
2018-08-28T17:37:37.225Z,4.67
2018-08-28T17:40:06.378Z,7.43
2018-08-28T17:42:34.581Z,7.40
2018-08-28T17:45:02.780Z,5.43
2018-08-28T17:47:30.960Z,7.43
2018-08-28T17:49:59.147Z,8.27
2018-08-28T17:52:27.953Z,6.93
2018-08-28T17:54:56.596Z,6.47
2018-08-28T17:57:24.816Z,6.30
2018-08-28T17:59:53.008Z,6.50
2018-08-28T18:02:21.821Z,7.57
2018-08-28T18:04:49.937Z,5.90
2018-08-28T18:07:18.129Z,5.50
2018-08-28T18:09:46.281Z,5.90
2018-08-28T18:12:14.468Z,5.23
2018-08-28T18:14:42.605Z,5.83
2018-08-28T18:17:10.779Z,6.10
2018-08-28T18:19:38.949Z,6.00
2018-08-28T18:22:07.158Z,9.17
2018-08-28T18:24:36.216Z,5.43
2018-08-28T18:27:04.658Z,6.50
2018-08-28T18:29:32.863Z,9.00
2018-08-28T18:32:01.008Z,8.80
2018-08-28T18:34:29.847Z,5.67
2018-08-28T18:36:58.764Z,4.37
2018-08-28T18:39:26.940Z,5.60
2018-08-28T18:41:55.390Z,4.90
2018-08-28T18:44:23.573Z,6.60
2018-08-28T18:46:52.547Z,6.23
2018-08-28T18:49:20.713Z,5.80
2018-08-28T18:51:48.943Z,6.80
2018-08-28T18:54:17.687Z,8.80
2018-08-28T18:56:45.853Z,5.70
2018-08-28T18:59:14.609Z,6.53
2018-08-28T19:01:43.021Z,11.10
2018-08-28T19:04:11.177Z,10.03
2018-08-28T19:06:39.665Z,9.57
2018-08-28T19:09:07.864Z,8.23
2018-08-28T19:11:36.009Z,6.07
2018-08-28T19:14:04.458Z,9.60
2018-08-28T19:16:32.580Z,7.93
2018-08-28T19:19:01.161Z,7.47
2018-08-28T19:21:29.313Z,11.53
2018-08-28T19:23:57.464Z,8.40
2018-08-28T19:26:25.725Z,6.60
2018-08-28T19:28:54.494Z,4.53
2018-08-28T19:31:22.636Z,6.47
2018-08-28T19:33:50.844Z,8.33
2018-08-28T19:36:18.981Z,5.90
2018-08-28T19:38:47.167Z,7.83
2018-08-28T19:41:15.339Z,9.50
2018-08-28T19:43:43.490Z,7.47
2018-08-28T19:46:11.666Z,6.97
2018-08-28T19:48:39.889Z,6.03
2018-08-28T19:51:08.071Z,7.97
2018-08-28T19:53:36.299Z,6.30
2018-08-28T19:56:06.017Z,9.60
2018-08-28T19:58:34.208Z,5.30
2018-08-28T20:01:02.997Z,7.17
2018-08-28T20:03:31.169Z,5.67
2018-08-28T20:05:59.993Z,4.77
2018-08-28T20:08:28.193Z,9.40
2018-08-28T20:10:56.379Z,5.13
2018-08-28T20:13:24.546Z,9.13
2018-08-28T20:15:52.677Z,6.07
2018-08-28T20:18:21.440Z,5.93
2018-08-28T20:20:49.689Z,6.13
2018-08-28T20:23:18.365Z,6.10
2018-08-28T20:25:46.545Z,7.00
2018-08-28T20:28:14.688Z,4.87
2018-08-28T20:30:42.824Z,6.30
2018-08-28T20:33:11.018Z,7.00
2018-08-28T20:35:39.165Z,7.23
2018-08-28T20:38:07.340Z,7.17
2018-08-28T20:40:36.185Z,5.30
2018-08-28T20:43:04.312Z,5.67
2018-08-28T20:45:32.543Z,9.23
2018-08-28T20:48:00.724Z,5.37
2018-08-28T20:50:28.890Z,4.97
2018-08-28T20:52:57.108Z,4.33
2018-08-28T20:55:25.290Z,4.53
2018-08-28T20:57:53.524Z,5.83
2018-08-28T21:00:22.392Z,6.93
2018-08-28T21:02:50.793Z,5.43
2018-08-28T21:05:24.521Z,4.90
2018-08-28T21:07:52.762Z,5.50
2018-08-28T21:10:21.393Z,5.53
2018-08-28T21:12:50.816Z,7.37
2018-08-28T21:15:19.232Z,7.60
2018-08-28T21:17:47.796Z,6.30
2018-08-28T21:20:16.060Z,6.90
2018-08-28T21:22:44.258Z,12.23
2018-08-28T21:25:12.652Z,4.57
2018-08-28T21:27:40.812Z,4.30
2018-08-28T21:30:09.028Z,6.10
2018-08-28T21:32:37.506Z,7.97
2018-08-28T21:35:06.057Z,6.23
2018-08-28T21:37:34.850Z,5.87
2018-08-28T21:40:03.651Z,6.27
2018-08-28T21:42:31.844Z,7.10
2018-08-28T21:45:00.045Z,4.77
2018-08-28T21:47:28.248Z,7.27
2018-08-28T21:49:56.864Z,4.90
2018-08-28T21:52:25.727Z,6.23
2018-08-28T21:54:54.036Z,4.33
2018-08-28T21:57:22.377Z,5.00
2018-08-28T21:59:50.696Z,4.27
2018-08-28T22:02:19.283Z,4.80
2018-08-28T22:04:48.002Z,4.83
2018-08-28T22:07:21.859Z,5.73
2018-08-28T22:09:50.047Z,7.43
2018-08-28T22:12:18.190Z,4.37
2018-08-28T22:14:46.362Z,5.90
2018-08-28T22:17:14.532Z,6.33
2018-08-28T22:19:42.732Z,5.07
2018-08-28T22:22:11.188Z,8.67
2018-08-28T22:24:39.316Z,6.07
2018-08-28T22:27:07.465Z,5.53
2018-08-28T22:29:35.609Z,5.90
2018-08-28T22:32:04.086Z,5.50
2018-08-28T22:34:32.310Z,4.77
2018-08-28T22:37:00.452Z,5.40
2018-08-28T22:39:28.692Z,6.50
2018-08-28T22:41:56.869Z,8.53
2018-08-28T22:44:25.284Z,5.57
2018-08-28T22:46:53.464Z,6.23
2018-08-28T22:49:21.992Z,6.37
2018-08-28T22:51:50.132Z,7.50
2018-08-28T22:54:18.336Z,7.10
2018-08-28T22:56:47.340Z,5.63
2018-08-28T22:59:15.530Z,6.07
2018-08-28T23:01:43.665Z,11.10
2018-08-28T23:04:11.816Z,5.10
2018-08-28T23:06:40.501Z,7.87
2018-08-28T23:09:09.549Z,6.57
2018-08-28T23:11:37.715Z,7.03
2018-08-28T23:14:05.891Z,5.67
2018-08-28T23:16:34.122Z,5.47
2018-08-28T23:19:02.389Z,7.23
2018-08-28T23:21:32.150Z,6.60
2018-08-28T23:24:00.284Z,6.97
2018-08-28T23:26:28.449Z,5.73
2018-08-28T23:28:56.604Z,5.70
2018-08-28T23:31:24.737Z,8.03
2018-08-28T23:33:53.232Z,4.70
2018-08-28T23:36:21.404Z,7.70
2018-08-28T23:38:50.519Z,6.93
2018-08-28T23:41:18.672Z,7.37
2018-08-28T23:43:46.840Z,8.50
2018-08-28T23:46:15.041Z,5.97
2018-08-28T23:48:43.257Z,6.43
2018-08-28T23:51:11.441Z,9.10
2018-08-28T23:53:39.623Z,7.17
2018-08-28T23:56:08.056Z,8.03
2018-08-28T23:58:36.755Z,6.50
